createdAt,value
2018-11-20T00:04:11.068Z,13.00
2018-11-20T00:09:01.986Z,13.27
2018-11-20T00:13:52.912Z,12.13
2018-11-20T00:18:43.932Z,12.20
2018-11-20T00:23:34.846Z,12.60
2018-11-20T00:28:25.756Z,13.53
2018-11-20T00:33:16.671Z,12.83
2018-11-20T00:38:07.608Z,12.90
2018-11-20T00:42:58.624Z,12.80
2018-11-20T00:47:49.528Z,12.33
2018-11-20T00:52:40.429Z,12.00
2018-11-20T00:57:31.389Z,11.40
2018-11-20T01:02:22.307Z,12.53
2018-11-20T01:07:13.341Z,12.07
2018-11-20T01:12:05.057Z,12.53
2018-11-20T01:16:55.960Z,10.97
2018-11-20T01:21:46.869Z,12.83
2018-11-20T01:26:37.813Z,12.13
2018-11-20T01:31:28.802Z,12.50
2018-11-20T01:36:19.742Z,11.37
2018-11-20T01:41:10.698Z,9.77
2018-11-20T01:46:01.577Z,9.50
2018-11-20T01:50:52.491Z,10.93
2018-11-20T01:55:43.385Z,10.87
2018-11-20T02:00:34.286Z,11.77
2018-11-20T02:05:25.171Z,10.53
2018-11-20T02:10:16.066Z,11.90
2018-11-20T02:15:07.000Z,11.43
2018-11-20T02:19:57.891Z,11.40
2018-11-20T02:24:48.785Z,10.30
2018-11-20T02:29:39.677Z,11.70
2018-11-20T02:34:31.318Z,14.20
2018-11-20T02:39:22.970Z,12.70
2018-11-20T02:44:13.923Z,12.57
2018-11-20T02:49:05.204Z,11.30
2018-11-20T02:53:56.908Z,12.13
2018-11-20T02:58:47.813Z,10.43
2018-11-20T03:03:38.724Z,11.00
2018-11-20T03:08:30.485Z,11.93
2018-11-20T03:13:21.390Z,11.27
2018-11-20T03:18:12.361Z,10.03
2018-11-20T03:23:04.054Z,10.13
2018-11-20T03:27:54.970Z,10.50
2018-11-20T03:32:45.889Z,10.27
2018-11-20T03:37:36.783Z,10.47
2018-11-20T03:42:27.688Z,10.07
2018-11-20T03:47:18.578Z,10.00
2018-11-20T03:52:10.260Z,9.63
2018-11-20T03:57:01.199Z,10.80
2018-11-20T04:01:52.114Z,10.50
2018-11-20T04:06:43.037Z,10.43
2018-11-20T04:11:33.931Z,10.90
2018-11-20T04:16:24.874Z,10.70
2018-11-20T04:21:15.748Z,11.50
2018-11-20T04:26:06.653Z,10.80
2018-11-20T04:31:10.781Z,10.73
2018-11-20T04:36:02.414Z,11.37
2018-11-20T04:40:54.065Z,11.40
2018-11-20T04:45:44.955Z,12.43
2018-11-20T04:50:35.944Z,11.47
2018-11-20T04:55:26.842Z,12.10
2018-11-20T05:00:17.794Z,11.60
2018-11-20T05:05:08.691Z,12.20
2018-11-20T05:09:59.591Z,13.50
2018-11-20T05:14:50.593Z,13.73
2018-11-20T05:19:42.222Z,12.50
2018-11-20T05:24:33.862Z,13.20
2018-11-20T05:29:25.511Z,12.77
2018-11-20T05:34:16.435Z,13.83
2018-11-20T05:39:07.342Z,12.63
2018-11-20T05:43:58.253Z,13.47
2018-11-20T05:48:49.899Z,13.70
2018-11-20T05:53:41.529Z,13.03
2018-11-20T05:58:33.147Z,12.17
2018-11-20T06:03:24.842Z,12.93
2018-11-20T06:08:15.761Z,12.40
2018-11-20T06:13:06.978Z,12.00
2018-11-20T06:17:57.859Z,12.07
2018-11-20T06:22:49.506Z,13.17
2018-11-20T06:27:40.386Z,12.00
2018-11-20T06:32:31.278Z,14.17
2018-11-20T06:37:22.161Z,12.30
2018-11-20T06:42:13.125Z,13.03
2018-11-20T06:47:04.054Z,13.47
2018-11-20T06:51:54.907Z,13.90
2018-11-20T06:56:46.538Z,14.00
2018-11-20T07:01:38.250Z,11.83
2018-11-20T07:06:29.820Z,11.90
2018-11-20T07:11:20.717Z,12.57
2018-11-20T07:16:14.256Z,12.57
2018-11-20T07:21:05.068Z,12.97
2018-11-20T07:25:55.992Z,13.40
2018-11-20T07:30:46.909Z,12.00
2018-11-20T07:35:37.796Z,12.80
2018-11-20T07:40:28.700Z,11.90
2018-11-20T07:45:20.392Z,12.13
2018-11-20T07:50:11.249Z,12.93
2018-11-20T07:55:02.883Z,12.00
2018-11-20T07:59:54.529Z,13.13
2018-11-20T08:04:46.167Z,13.63
2018-11-20T08:09:37.065Z,13.23
2018-11-20T08:14:28.737Z,13.60
2018-11-20T08:19:19.631Z,12.93
2018-11-20T08:24:11.269Z,13.47
2018-11-20T08:29:02.909Z,12.80
2018-11-20T08:33:54.554Z,11.43
2018-11-20T08:38:45.452Z,13.97
2018-11-20T08:43:37.093Z,13.40
2018-11-20T08:48:28.830Z,13.27
2018-11-20T08:53:19.679Z,13.50
2018-11-20T08:58:10.547Z,13.80
2018-11-20T09:03:01.502Z,13.00
2018-11-20T09:07:52.336Z,12.37
2018-11-20T09:12:43.224Z,12.57
2018-11-20T09:17:34.862Z,13.23
2018-11-20T09:22:26.483Z,12.83
2018-11-20T09:27:18.114Z,12.00
2018-11-20T09:32:09.754Z,11.90
2018-11-20T09:37:01.403Z,11.40
2018-11-20T09:41:53.093Z,13.37
2018-11-20T09:46:44.008Z,12.80
2018-11-20T09:51:34.893Z,13.10
2018-11-20T09:56:25.797Z,12.13
2018-11-20T10:01:17.436Z,12.67
2018-11-20T10:06:08.325Z,13.57
2018-11-20T10:10:59.231Z,13.77
2018-11-20T10:15:50.141Z,13.13
2018-11-20T10:20:41.044Z,13.87
2018-11-20T10:25:32.062Z,13.83
2018-11-20T10:30:22.955Z,14.10
2018-11-20T10:35:13.869Z,12.63
2018-11-20T10:40:04.751Z,13.20
2018-11-20T10:44:55.653Z,13.80
2018-11-20T10:49:47.302Z,14.43
2018-11-20T10:54:38.197Z,14.30
2018-11-20T10:59:29.110Z,14.47
2018-11-20T11:04:20.121Z,15.50
2018-11-20T11:09:10.955Z,14.70
2018-11-20T11:14:01.858Z,15.13
2018-11-20T11:18:52.743Z,16.00
2018-11-20T11:23:43.803Z,15.57
2018-11-20T11:28:34.672Z,16.67
2018-11-20T11:33:28.806Z,16.80
2018-11-20T11:38:17.959Z,16.40
2018-11-20T11:43:08.847Z,17.73
2018-11-20T11:48:01.283Z,17.17
2018-11-20T11:52:52.188Z,15.70
2018-11-20T11:57:43.087Z,18.20
